createdAt,value
2019-05-30T14:16:06.899Z,4.63
2019-05-30T14:19:12.920Z,6.50
2019-05-30T14:22:17.926Z,7.90
2019-05-30T14:25:22.559Z,7.63
2019-05-30T14:28:27.385Z,8.93
2019-05-30T14:31:32.222Z,9.40
2019-05-30T14:34:36.938Z,11.77
2019-05-30T14:37:41.774Z,12.20
2019-05-30T14:40:46.511Z,12.00
2019-05-30T14:43:51.382Z,8.43
2019-05-30T14:46:56.149Z,8.57
2019-05-30T14:50:01.037Z,10.63
2019-05-30T14:53:06.819Z,11.43
2019-05-30T14:56:11.690Z,11.27
2019-05-30T14:59:17.197Z,13.20
2019-05-30T15:02:21.963Z,14.27
2019-05-30T15:05:26.685Z,8.43
2019-05-30T15:08:31.508Z,7.87
2019-05-30T15:11:36.354Z,12.80
2019-05-30T15:14:41.174Z,10.93
2019-05-30T15:17:45.973Z,10.13
2019-05-30T15:20:50.424Z,8.30
2019-05-30T15:23:55.365Z,7.43
2019-05-30T15:27:00.171Z,8.07
2019-05-30T15:30:06.621Z,8.00
2019-05-30T15:33:13.056Z,8.10
2019-05-30T15:36:17.761Z,8.57
2019-05-30T15:39:32.456Z,7.67
2019-05-30T15:42:28.858Z,7.13
2019-05-30T15:45:33.669Z,8.37
2019-05-30T15:48:38.437Z,6.80
2019-05-30T15:51:43.386Z,8.70
2019-05-30T15:54:47.861Z,6.67
2019-05-30T15:57:52.585Z,6.57
2019-05-30T16:00:57.297Z,7.43
2019-05-30T16:04:02.039Z,5.97
2019-05-30T16:07:06.884Z,4.60
2019-05-30T16:10:12.729Z,5.33
2019-05-30T16:13:17.548Z,5.43
2019-05-30T16:16:33.795Z,4.90
2019-05-30T16:19:28.857Z,4.67
2019-05-30T16:22:35.273Z,3.80
2019-05-30T16:25:40.054Z,5.57
2019-05-30T16:28:44.725Z,6.47
2019-05-30T16:31:49.659Z,5.97
2019-05-30T16:34:54.533Z,6.73
2019-05-30T16:37:59.493Z,7.80
2019-05-30T16:41:04.403Z,8.00
2019-05-30T16:44:08.917Z,8.67
2019-05-30T16:47:14.393Z,11.67
2019-05-30T16:50:19.207Z,7.33
2019-05-30T16:53:25.789Z,8.37
2019-05-30T16:56:30.521Z,6.30
2019-05-30T16:59:35.504Z,6.73
2019-05-30T17:02:40.275Z,10.63
2019-05-30T17:05:45.124Z,6.23
2019-05-30T17:08:49.830Z,7.10
2019-05-30T17:11:54.554Z,8.07
2019-05-30T17:14:59.393Z,9.03
2019-05-30T17:18:04.230Z,10.53
2019-05-30T17:21:09.147Z,10.20
2019-05-30T17:24:13.678Z,9.43
2019-05-30T17:27:19.178Z,11.70
2019-05-30T17:30:23.943Z,10.90
2019-05-30T17:33:28.812Z,13.20
2019-05-30T17:36:33.604Z,11.17
2019-05-30T17:39:38.540Z,10.60
2019-05-30T17:42:43.383Z,10.37
2019-05-30T17:45:48.125Z,10.37
2019-05-30T17:48:52.639Z,10.30
2019-05-30T17:51:57.472Z,10.17
2019-05-30T17:55:02.284Z,7.70
2019-05-30T17:58:10.211Z,7.63
2019-05-30T18:01:13.456Z,7.30
2019-05-30T18:04:17.905Z,7.83
2019-05-30T18:07:22.869Z,8.17
2019-05-30T18:10:27.678Z,9.43
2019-05-30T18:13:32.495Z,10.27
2019-05-30T18:16:37.117Z,10.27
2019-05-30T18:19:41.779Z,11.07
2019-05-30T18:22:46.272Z,11.03
2019-05-30T18:25:51.976Z,11.13
2019-05-30T18:28:56.859Z,12.80
2019-05-30T18:32:01.583Z,10.33
2019-05-30T18:35:06.105Z,11.67
2019-05-30T18:38:10.731Z,9.13
2019-05-30T18:41:16.623Z,9.60
2019-05-30T18:44:22.659Z,8.77
2019-05-30T18:47:27.514Z,8.70
2019-05-30T18:50:33.273Z,8.87
2019-05-30T18:53:37.973Z,9.23
2019-05-30T18:56:42.682Z,7.83
2019-05-30T18:59:47.410Z,7.80
2019-05-30T19:02:52.133Z,8.00
2019-05-30T19:05:56.869Z,9.10
2019-05-30T19:09:01.677Z,8.20
2019-05-30T19:12:06.313Z,7.90
2019-05-30T19:15:11.948Z,7.13
2019-05-30T19:18:16.708Z,8.70
2019-05-30T19:21:21.532Z,6.13
2019-05-30T19:24:26.206Z,7.67
2019-05-30T19:27:33.729Z,5.50
2019-05-30T19:30:40.847Z,6.47
2019-05-30T19:33:44.065Z,4.73
